Millersport, Ohio
Current Conditions -  °F | °C
As of 6:54 PM on Saturday 25 Oct 2014 (Local Time) from KVTA Reporting Station
Clear Clear  
Wind Chill: 65°   Ceiling: Unl
Heat Index: 65°   Visibility: 10mi
Dew Point: 53°   Wind: 8mph
Humidity: 65%   Direction: 240°WSW
Pressure: 29.82"   Gusts: NA
Location:  39.9°N, 82.53°W
Report Text: KVTA 252254Z AUTO 24007KT 10SM CLR 18/12 A2982 RMK AO2 SLP098 T01830117
Loading
Personal Weather Stations






























Interactive Weather Map
Tropical Storm Tracking
New forecast layout! Learn more

10-Day Weather Forecast

Advertisements
Track Severe Weather on mobile